Time;durP1;ratioP1;P1;durP2;ratioP2;P2;SDS_P1;SDS_P2;PMS_P1;PMS_P2;Temp;Humidity;BMP_temperature;BMP_pressure;BME280_temperature;BME280_humidity;BME280_pressure;Samples;Min_cycle;Max_cycle;Signal;HPM_P1;HPM_P2
2021/12/20 00:00:28;;;;;;;5.13;3.80;;;;;;;3.76;nan;94537.63;5059667;28;20203;-70
2021/12/20 00:02:57;;;;;;;4.63;4.33;;;;;;;3.65;nan;94548.72;5058505;28;20794;-69
2021/12/20 00:05:25;;;;;;;4.10;3.80;;;;;;;3.68;nan;94541.13;5059311;28;20207;-69
2021/12/20 00:07:52;;;;;;;4.80;3.40;;;;;;;3.74;nan;94549.38;5059283;28;20214;-68
2021/12/20 00:10:20;;;;;;;4.40;4.10;;;;;;;3.80;nan;94550.97;5059601;28;20205;-70
2021/12/20 00:12:47;;;;;;;5.07;4.43;;;;;;;3.79;nan;94553.50;5059424;28;20256;-68
2021/12/20 00:15:16;;;;;;;4.93;3.70;;;;;;;3.87;nan;94561.75;5059081;28;20213;-69
2021/12/20 00:17:42;;;;;;;5.60;4.40;;;;;;;3.93;nan;94554.13;5059640;28;20210;-70
2021/12/20 00:20:10;;;;;;;4.87;4.20;;;;;;;3.91;nan;94551.66;5057167;28;20677;-69
2021/12/20 00:22:37;;;;;;;6.97;4.67;;;;;;;3.79;nan;94561.88;5056798;28;20211;-70
2021/12/20 00:25:05;;;;;;;6.47;4.03;;;;;;;3.71;nan;94558.66;5059638;28;20231;-70
2021/12/20 00:27:33;;;;;;;5.60;4.03;;;;;;;3.70;nan;94557.00;5058872;28;20321;-70
2021/12/20 00:30:00;;;;;;;4.07;3.50;;;;;;;3.82;nan;94555.97;5061851;28;20206;-69
2021/12/20 00:32:27;;;;;;;4.00;3.70;;;;;;;3.81;nan;94550.13;5062284;28;20676;-69
2021/12/20 00:34:54;;;;;;;4.03;3.20;;;;;;;3.71;nan;94531.03;5063000;28;20209;-70
2021/12/20 00:40:20;;;;;;;3.60;3.30;;;;;;;3.84;nan;94531.66;5031246;28;20209;-71
2021/12/20 00:42:50;;;;;;;3.53;3.33;;;;;;;3.99;nan;94534.72;5062701;28;20253;-70
2021/12/20 00:45:18;;;;;;;3.70;3.40;;;;;;;3.95;nan;94527.28;5062512;28;20194;-70
2021/12/20 00:47:45;;;;;;;4.63;3.93;;;;;;;3.90;nan;94519.81;5062631;28;20256;-69
2021/12/20 00:50:14;;;;;;;4.13;3.30;;;;;;;3.93;nan;94521.44;5063034;28;20202;-69
2021/12/20 00:52:42;;;;;;;3.60;3.40;;;;;;;3.96;nan;94509.63;5062613;28;20307;-69
2021/12/20 00:55:09;;;;;;;3.73;3.43;;;;;;;3.89;nan;94508.09;5063055;28;20264;-69
2021/12/20 00:57:36;;;;;;;3.87;3.57;;;;;;;3.83;nan;94507.38;5062319;28;20259;-69
2021/12/20 01:00:07;;;;;;;3.73;3.23;;;;;;;3.87;nan;94508.97;5062368;28;20567;-71
2021/12/20 01:02:33;;;;;;;3.63;3.33;;;;;;;3.83;nan;94505.69;5062274;28;20240;-70
2021/12/20 01:05:00;;;;;;;3.83;3.23;;;;;;;3.84;nan;94509.84;5062488;28;20707;-70
2021/12/20 01:07:28;;;;;;;3.30;3.10;;;;;;;3.84;nan;94504.84;5063055;28;20206;-70
2021/12/20 01:09:58;;;;;;;3.47;3.23;;;;;;;3.89;nan;94514.81;5062541;28;20792;-69
2021/12/20 01:12:29;;;;;;;3.77;3.47;;;;;;;3.89;nan;94508.09;5061914;28;20297;-70
2021/12/20 01:14:59;;;;;;;2.87;2.77;;;;;;;3.90;nan;94508.94;5062972;28;20213;-71
2021/12/20 01:17:27;;;;;;;3.63;3.30;;;;;;;3.82;nan;94511.56;5061930;28;20203;-70
2021/12/20 01:19:55;;;;;;;3.17;2.90;;;;;;;3.78;nan;94519.16;5062805;28;20194;-69
2021/12/20 01:22:21;;;;;;;2.97;2.53;;;;;;;3.81;nan;94511.59;5061715;28;20276;-69
2021/12/20 01:24:48;;;;;;;3.43;3.23;;;;;;;3.82;nan;94526.66;5061696;28;20230;-69
2021/12/20 01:27:15;;;;;;;3.03;2.83;;;;;;;3.87;nan;94519.88;5062512;28;20199;-70
2021/12/20 01:29:41;;;;;;;2.80;2.63;;;;;;;3.84;nan;94524.09;5061828;28;20672;-69
2021/12/20 01:32:08;;;;;;;2.90;2.70;;;;;;;3.81;nan;94524.97;5061555;28;20210;-69
2021/12/20 01:34:36;;;;;;;3.17;2.97;;;;;;;3.81;nan;94524.16;5062172;28;20252;-70
2021/12/20 01:37:03;;;;;;;3.30;3.00;;;;;;;3.80;nan;94522.50;5061987;28;20276;-70
2021/12/20 01:39:30;;;;;;;3.70;3.40;;;;;;;3.85;nan;94525.78;5060920;28;20202;-69
2021/12/20 01:41:59;;;;;;;4.07;3.67;;;;;;;3.81;nan;94519.13;5061319;28;20233;-69
2021/12/20 01:44:26;;;;;;;3.73;3.43;;;;;;;3.76;nan;94516.69;5061249;28;20234;-70
2021/12/20 01:46:52;;;;;;;3.20;3.00;;;;;;;3.83;nan;94513.22;5062006;28;20211;-69
2021/12/20 01:49:19;;;;;;;3.37;3.17;;;;;;;3.88;nan;94531.56;5061167;28;20194;-69
2021/12/20 01:52:01;;;;;;;3.73;3.43;;;;;;;3.94;nan;94525.63;5061863;28;20627;-69
2021/12/20 01:54:28;;;;;;;3.30;3.10;;;;;;;3.92;nan;94533.19;5061574;28;20281;-69
2021/12/20 01:56:55;;;;;;;4.50;3.60;;;;;;;3.87;nan;94522.38;5061470;28;20203;-71
2021/12/20 01:59:22;;;;;;;3.17;2.97;;;;;;;3.86;nan;94523.22;5061459;28;20206;-70
2021/12/20 02:01:49;;;;;;;3.50;3.20;;;;;;;3.95;nan;94528.13;5061972;28;20202;-72
2021/12/20 02:04:16;;;;;;;3.43;3.23;;;;;;;3.89;nan;94520.66;5061257;28;20364;-73
2021/12/20 02:06:46;;;;;;;3.80;3.10;;;;;;;3.89;nan;94538.25;5061505;28;20229;-70
2021/12/20 02:09:16;;;;;;;4.13;3.73;;;;;;;3.88;nan;94531.56;5060950;28;20584;-71
2021/12/20 02:11:45;;;;;;;5.43;3.53;;;;;;;3.90;nan;94517.31;5061712;28;20206;-71
2021/12/20 02:14:12;;;;;;;3.97;3.67;;;;;;;3.88;nan;94520.69;5061020;28;20243;-72
2021/12/20 02:16:41;;;;;;;3.63;3.43;;;;;;;3.94;nan;94516.41;5061005;28;20252;-72
2021/12/20 02:19:10;;;;;;;4.10;3.70;;;;;;;3.95;nan;94528.13;5061121;28;20293;-73
2021/12/20 02:21:39;;;;;;;4.17;3.87;;;;;;;3.88;nan;94525.72;5061198;28;20206;-70
2021/12/20 02:24:07;;;;;;;3.63;3.43;;;;;;;3.96;nan;94534.78;5060916;28;20229;-72
2021/12/20 02:26:35;;;;;;;4.70;4.30;;;;;;;3.93;nan;94524.81;5060482;28;20195;-72
2021/12/20 02:29:05;;;;;;;4.30;4.00;;;;;;;3.88;nan;94534.09;5060975;28;20210;-73
2021/12/20 02:37:17;;;;;;;4.10;3.80;;;;;;;3.84;nan;94529.97;5061672;28;20201;-71
2021/12/20 02:39:44;;;;;;;4.60;4.20;;;;;;;3.81;nan;94519.97;5060426;28;20190;-70
2021/12/20 02:42:16;;;;;;;4.70;4.30;;;;;;;3.82;nan;94521.63;5060077;28;20238;-70
2021/12/20 02:44:48;;;;;;;4.40;4.00;;;;;;;3.88;nan;94534.09;5061023;28;20821;-73
2021/12/20 02:47:26;;;;;;;4.13;3.83;;;;;;;3.79;nan;94529.19;5060959;28;20203;-72
2021/12/20 02:49:53;;;;;;;4.40;3.97;;;;;;;3.84;nan;94534.16;5060246;28;20990;-72
2021/12/20 02:52:21;;;;;;;4.67;4.13;;;;;;;3.91;nan;94535.72;5060180;28;20653;-71
2021/12/20 02:54:48;;;;;;;5.15;4.57;;;;;;;3.84;nan;94535.00;5061015;28;20207;-71
2021/12/20 02:57:15;;;;;;;4.63;4.20;;;;;;;3.94;nan;94526.47;5061007;28;20210;-69
2021/12/20 02:59:42;;;;;;;4.67;4.37;;;;;;;3.89;nan;94527.38;5059714;28;20287;-70
2021/12/20 03:02:11;;;;;;;4.57;4.17;;;;;;;3.80;nan;94523.31;5058752;28;20638;-68
2021/12/20 03:04:39;;;;;;;4.33;4.03;;;;;;;3.81;nan;94530.00;5059167;28;20626;-68
2021/12/20 03:07:09;;;;;;;5.72;4.80;;;;;;;3.88;nan;94521.53;5060186;28;20198;-71
2021/12/20 03:09:41;;;;;;;4.20;3.90;;;;;;;3.79;nan;94523.34;5060315;28;20191;-73
2021/12/20 03:12:12;;;;;;;4.93;4.33;;;;;;;3.82;nan;94520.78;5059982;28;20213;-69
2021/12/20 03:14:42;;;;;;;5.10;4.70;;;;;;;3.75;nan;94525.06;5059153;28;20723;-70
2021/12/20 03:17:10;;;;;;;5.13;4.72;;;;;;;3.78;nan;94530.06;5059520;28;20710;-70
2021/12/20 03:19:37;;;;;;;4.85;4.45;;;;;;;3.78;nan;94517.50;5059696;28;20199;-71
2021/12/20 03:22:05;;;;;;;4.32;3.95;;;;;;;3.88;nan;94526.56;5059830;28;20203;-69
2021/12/20 03:24:32;;;;;;;4.97;3.77;;;;;;;3.97;nan;94535.59;5060490;28;20229;-70
2021/12/20 03:27:01;;;;;;;4.27;3.93;;;;;;;3.87;nan;94514.84;5060585;28;20198;-69
2021/12/20 03:29:27;;;;;;;4.37;4.00;;;;;;;3.83;nan;94533.34;5060208;28;20251;-70
2021/12/20 03:31:54;;;;;;;4.23;3.93;;;;;;;3.87;nan;94532.44;5058090;28;20202;-70
2021/12/20 03:34:21;;;;;;;5.40;4.03;;;;;;;3.95;nan;94542.38;5059628;28;20199;-72
2021/12/20 03:36:48;;;;;;;4.93;4.50;;;;;;;3.99;nan;94546.47;5060116;28;20203;-72
2021/12/20 03:39:15;;;;;;;4.27;3.83;;;;;;;3.98;nan;94548.16;5059923;28;20687;-73
2021/12/20 03:41:43;;;;;;;4.90;4.50;;;;;;;3.90;nan;94541.59;5059497;28;20285;-73
2021/12/20 03:44:12;;;;;;;5.27;4.60;;;;;;;3.98;nan;94542.28;5059426;28;20622;-70
2021/12/20 03:46:39;;;;;;;5.28;4.65;;;;;;;3.83;nan;94533.34;5060351;28;20210;-74
2021/12/20 03:49:06;;;;;;;5.23;4.83;;;;;;;3.86;nan;94537.47;5059740;28;20592;-72
2021/12/20 03:51:33;;;;;;;5.17;4.77;;;;;;;3.80;nan;94533.38;5059723;28;20198;-73
2021/12/20 03:54:00;;;;;;;5.27;4.70;;;;;;;3.88;nan;94541.63;5060009;28;20214;-70
2021/12/20 03:56:27;;;;;;;5.40;4.90;;;;;;;3.80;nan;94542.59;5060285;28;20206;-72
2021/12/20 03:58:54;;;;;;;6.03;5.53;;;;;;;3.71;nan;94543.59;5059179;28;20202;-73
2021/12/20 04:01:24;;;;;;;6.43;5.23;;;;;;;3.72;nan;94536.00;5059482;28;20276;-74
2021/12/20 04:03:51;;;;;;;10.30;5.97;;;;;;;3.83;nan;94540.03;5060946;28;20203;-71
2021/12/20 04:06:18;;;;;;;6.43;5.80;;;;;;;3.70;nan;94537.75;5063997;28;21120;-72
2021/12/20 04:08:46;;;;;;;6.87;5.40;;;;;;;3.62;nan;94554.59;5063788;28;20259;-72
2021/12/20 04:11:13;;;;;;;6.13;5.57;;;;;;;3.96;nan;94547.34;5063367;28;20194;-71
2021/12/20 04:13:40;;;;;;;6.63;6.07;;;;;;;3.94;nan;94551.59;5063537;28;20258;-69
2021/12/20 04:16:07;;;;;;;7.03;6.33;;;;;;;3.97;nan;94554.03;5063387;28;20255;-70
2021/12/20 04:18:36;;;;;;;6.50;5.70;;;;;;;3.90;nan;94559.22;5063582;28;20195;-70
2021/12/20 04:21:03;;;;;;;6.63;6.03;;;;;;;3.72;nan;94565.31;5063633;28;20638;-71
2021/12/20 04:23:30;;;;;;;7.43;6.03;;;;;;;3.59;nan;94568.88;5063210;28;20755;-70
2021/12/20 04:25:57;;;;;;;8.30;6.10;;;;;;;3.64;nan;94582.22;5062972;28;20218;-71
2021/12/20 04:28:23;;;;;;;6.93;5.97;;;;;;;3.57;nan;94575.63;5063169;28;20202;-73
2021/12/20 04:30:50;;;;;;;11.13;6.37;;;;;;;3.54;nan;94580.69;5063360;28;20202;-71
2021/12/20 04:33:17;;;;;;;7.40;6.80;;;;;;;3.61;nan;94572.22;5062952;28;20969;-74
2021/12/20 04:35:46;;;;;;;7.77;6.70;;;;;;;3.60;nan;94576.41;5063134;28;20644;-71
2021/12/20 04:38:13;;;;;;;7.37;6.77;;;;;;;3.64;nan;94579.72;5062690;28;20592;-70
2021/12/20 04:40:40;;;;;;;7.03;6.33;;;;;;;3.69;nan;94580.47;5062625;28;20268;-72
2021/12/20 04:43:07;;;;;;;8.17;7.37;;;;;;;3.57;nan;94586.50;5062842;28;20242;-73
2021/12/20 04:45:35;;;;;;;13.53;7.07;;;;;;;3.56;nan;94584.00;5062636;28;20237;-72
2021/12/20 04:48:02;;;;;;;8.17;7.40;;;;;;;3.62;nan;94584.75;5062703;28;20709;-73
2021/12/20 04:50:29;;;;;;;16.60;10.27;;;;;;;3.55;nan;94589.88;5062610;28;20206;-71
2021/12/20 04:52:58;;;;;;;9.90;8.40;;;;;;;3.58;nan;94587.31;5062061;28;20203;-71
2021/12/20 04:55:26;;;;;;;7.43;6.70;;;;;;;3.57;nan;94588.19;5062108;28;20806;-69
2021/12/20 04:57:54;;;;;;;6.70;6.00;;;;;;;3.57;nan;94590.69;5062482;28;20203;-74
2021/12/20 05:00:24;;;;;;;6.30;5.53;;;;;;;3.50;nan;94599.16;5062366;28;20248;-72
2021/12/20 05:02:50;;;;;;;5.93;5.43;;;;;;;3.47;nan;94596.69;5062248;28;20252;-70
2021/12/20 05:05:18;;;;;;;6.67;5.47;;;;;;;3.50;nan;94597.47;5062505;28;20284;-71
2021/12/20 05:07:46;;;;;;;5.33;4.83;;;;;;;3.47;nan;94599.19;5061650;28;20327;-71
2021/12/20 05:10:25;;;;;;;6.07;5.47;;;;;;;3.52;nan;94600.78;5061868;28;20289;-71
2021/12/20 05:12:52;;;;;;;5.83;5.37;;;;;;;3.47;nan;94600.03;5062142;28;20205;-73
2021/12/20 05:15:19;;;;;;;6.00;5.37;;;;;;;3.47;nan;94601.69;5061979;28;20206;-69
2021/12/20 05:17:46;;;;;;;7.20;5.27;;;;;;;3.46;nan;94612.63;5062469;28;20297;-74
2021/12/20 05:20:13;;;;;;;5.83;4.70;;;;;;;3.31;nan;94619.50;5061950;28;20622;-70
2021/12/20 05:22:41;;;;;;;5.60;5.15;;;;;;;3.42;nan;94622.72;5061923;28;20222;-73
2021/12/20 05:25:09;;;;;;;5.43;5.03;;;;;;;3.40;nan;94614.38;5062177;28;20604;-73
2021/12/20 05:27:38;;;;;;;7.00;5.50;;;;;;;3.39;nan;94611.88;5062429;28;20206;-71
2021/12/20 05:30:06;;;;;;;5.27;4.87;;;;;;;3.44;nan;94616.84;5062075;28;20260;-73
2021/12/20 05:32:33;;;;;;;5.03;4.63;;;;;;;3.45;nan;94621.03;5061823;28;20206;-71
2021/12/20 05:35:00;;;;;;;4.67;4.37;;;;;;;3.44;nan;94609.31;5062314;28;20203;-70
2021/12/20 05:37:27;;;;;;;6.90;5.47;;;;;;;3.27;nan;94612.84;5062010;28;20214;-70
2021/12/20 05:39:54;;;;;;;5.77;5.33;;;;;;;3.38;nan;94618.59;5061818;28;20637;-69
2021/12/20 05:42:21;;;;;;;5.10;4.60;;;;;;;3.30;nan;94620.34;5061463;28;20245;-71
2021/12/20 05:44:50;;;;;;;5.30;4.90;;;;;;;3.36;nan;94626.97;5061712;28;20257;-73
2021/12/20 05:47:18;;;;;;;6.97;5.13;;;;;;;3.36;nan;94617.75;5061530;28;20203;-71
2021/12/20 05:49:44;;;;;;;6.03;5.28;;;;;;;3.29;nan;94595.25;5061507;28;20609;-72
2021/12/20 05:52:11;;;;;;;5.83;5.17;;;;;;;3.41;nan;94600.97;5061297;28;20943;-73
2021/12/20 05:54:38;;;;;;;5.87;5.17;;;;;;;3.48;nan;94623.47;5061442;28;20722;-74
2021/12/20 05:57:05;;;;;;;6.20;5.70;;;;;;;3.32;nan;94622.84;5061609;28;20750;-73
2021/12/20 05:59:32;;;;;;;5.60;5.20;;;;;;;3.24;nan;94635.47;5061352;28;20657;-71
2021/12/20 06:02:00;;;;;;;6.17;5.57;;;;;;;3.47;nan;94624.31;5060774;28;20743;-70
2021/12/20 06:04:28;;;;;;;5.17;4.67;;;;;;;3.45;nan;94626.88;5061248;28;20238;-73
2021/12/20 06:06:54;;;;;;;5.60;5.10;;;;;;;3.33;nan;94642.09;5061272;28;20268;-73
2021/12/20 06:09:21;;;;;;;5.40;4.90;;;;;;;3.27;nan;94645.50;5061359;28;20202;-74
2021/12/20 06:11:48;;;;;;;5.57;5.10;;;;;;;3.34;nan;94648.78;5061023;28;20307;-71
2021/12/20 06:14:15;;;;;;;5.37;4.97;;;;;;;3.38;nan;94646.22;5060860;28;20291;-73
2021/12/20 06:16:42;;;;;;;5.87;5.33;;;;;;;3.38;nan;94641.19;5061010;28;20206;-72
2021/12/20 06:19:10;;;;;;;4.77;4.37;;;;;;;3.36;nan;94645.41;5061195;28;20202;-70
2021/12/20 06:21:36;;;;;;;5.47;4.93;;;;;;;3.51;nan;94656.91;5060853;28;20202;-70
2021/12/20 06:24:03;;;;;;;5.93;5.47;;;;;;;3.54;nan;94661.06;5060458;28;20267;-71
2021/12/20 06:26:30;;;;;;;5.53;5.07;;;;;;;3.60;nan;94655.97;5060022;28;20399;-71
2021/12/20 06:28:57;;;;;;;4.80;4.50;;;;;;;3.50;nan;94649.41;5060396;28;20206;-72
2021/12/20 06:31:23;;;;;;;8.53;4.90;;;;;;;3.51;nan;94661.09;5060549;28;20199;-71
2021/12/20 06:33:51;;;;;;;5.17;4.77;;;;;;;3.48;nan;94661.16;5060205;28;20194;-73
2021/12/20 06:36:20;;;;;;;5.40;5.00;;;;;;;3.47;nan;94656.97;5060775;28;20206;-72
2021/12/20 06:38:48;;;;;;;4.83;4.47;;;;;;;3.49;nan;94662.81;5060587;28;20208;-69
2021/12/20 06:41:15;;;;;;;5.30;4.90;;;;;;;3.58;nan;94670.22;5060330;28;20587;-69
2021/12/20 06:43:42;;;;;;;5.10;4.70;;;;;;;3.61;nan;94665.19;5060003;28;20267;-72
2021/12/20 06:46:08;;;;;;;4.50;4.13;;;;;;;3.58;nan;94667.72;5060716;28;20233;-73
2021/12/20 06:48:35;;;;;;;5.43;4.90;;;;;;;3.68;nan;94666.75;5060432;28;20240;-69
2021/12/20 06:51:02;;;;;;;5.00;4.63;;;;;;;3.66;nan;94659.25;5061100;28;20649;-73
2021/12/20 06:53:30;;;;;;;6.10;4.37;;;;;;;3.64;nan;94655.91;5059850;28;20646;-73
2021/12/20 06:55:57;;;;;;;5.00;4.33;;;;;;;3.65;nan;94660.09;5059995;28;20283;-73
2021/12/20 06:58:24;;;;;;;3.40;2.93;;;;;;;3.71;nan;94654.97;5060039;28;20242;-72
2021/12/20 07:00:52;;;;;;;3.80;3.60;;;;;;;3.73;nan;94662.47;5060592;28;21182;-70
2021/12/20 07:03:19;;;;;;;3.53;3.23;;;;;;;3.55;nan;94660.22;5059895;28;20202;-71
2021/12/20 07:05:46;;;;;;;3.23;3.03;;;;;;;3.61;nan;94662.66;5060782;28;20330;-71
2021/12/20 07:08:13;;;;;;;4.33;3.50;;;;;;;3.68;nan;94667.59;5059759;28;20206;-72
2021/12/20 07:10:41;;;;;;;4.17;3.83;;;;;;;3.74;nan;94669.16;5060164;28;20268;-73
2021/12/20 07:13:09;;;;;;;3.43;2.93;;;;;;;3.80;nan;94663.22;5059723;28;20210;-71
2021/12/20 07:15:36;;;;;;;7.37;6.47;;;;;;;3.74;nan;94664.13;5059798;28;20292;-72
2021/12/20 07:18:03;;;;;;;5.47;4.97;;;;;;;3.81;nan;94655.69;5060107;28;20194;-71
2021/12/20 07:20:30;;;;;;;4.70;4.23;;;;;;;3.81;nan;94665.72;5059872;28;21414;-71
2021/12/20 07:22:57;;;;;;;5.13;3.90;;;;;;;3.97;nan;94668.84;5058734;28;20724;-71
2021/12/20 07:25:25;;;;;;;3.80;3.60;;;;;;;4.25;nan;94677.63;5059966;28;20233;-71
2021/12/20 07:27:53;;;;;;;3.72;3.50;;;;;;;4.62;nan;94685.44;5060205;28;20256;-71
2021/12/20 07:30:21;;;;;;;3.90;3.60;;;;;;;4.83;nan;94683.41;5059553;28;20255;-74
2021/12/20 07:32:48;;;;;;;3.90;3.60;;;;;;;4.85;nan;94676.66;5059932;28;20198;-68
2021/12/20 07:35:15;;;;;;;4.23;3.93;;;;;;;4.66;nan;94677.00;5059813;28;20216;-70
2021/12/20 07:37:42;;;;;;;5.53;5.03;;;;;;;4.48;nan;94669.72;5059493;28;21018;-72
2021/12/20 07:40:11;;;;;;;4.07;3.73;;;;;;;4.64;nan;94670.31;5059723;28;20202;-69
2021/12/20 07:42:37;;;;;;;4.28;3.67;;;;;;;4.77;nan;94672.59;5058848;28;20237;-70
2021/12/20 07:45:07;;;;;;;3.67;3.37;;;;;;;4.90;nan;94678.25;5060396;28;20296;-69
2021/12/20 07:47:34;;;;;;;4.28;3.97;;;;;;;6.16;nan;94664.78;5059897;28;20203;-71
2021/12/20 07:50:01;;;;;;;4.20;3.87;;;;;;;7.69;nan;94672.56;5059448;28;20251;-71
2021/12/20 07:52:27;;;;;;;3.72;3.42;;;;;;;7.86;nan;94672.09;5059210;28;20198;-71
2021/12/20 07:54:54;;;;;;;4.23;3.27;;;;;;;9.33;nan;94664.00;5059784;28;20288;-70
2021/12/20 07:57:21;;;;;;;3.97;3.67;;;;;;;10.37;nan;94665.25;5059723;28;20629;-69
2021/12/20 07:59:48;;;;;;;3.05;2.75;;;;;;;10.80;nan;94671.97;5059264;28;20206;-72
2021/12/20 08:02:16;;;;;;;3.42;3.13;;;;;;;10.25;nan;94679.22;5058719;28;20203;-69
2021/12/20 08:04:48;;;;;;;3.70;3.13;;;;;;;9.05;nan;94683.56;5059039;28;20565;-70
2021/12/20 08:07:15;;;;;;;4.85;4.03;;;;;;;8.60;nan;94676.59;5059925;28;20226;-68
2021/12/20 08:09:42;;;;;;;3.63;3.28;;;;;;;7.64;nan;94686.22;5059268;28;20209;-69
2021/12/20 08:12:10;;;;;;;4.80;4.00;;;;;;;7.03;nan;94680.28;5059373;28;20259;-72
2021/12/20 08:14:37;;;;;;;5.65;4.28;;;;;;;7.18;nan;94687.47;5059720;28;20210;-69
2021/12/20 08:17:04;;;;;;;8.77;4.20;;;;;;;7.38;nan;94699.59;5059686;28;20202;-71
2021/12/20 08:19:33;;;;;;;4.43;4.10;;;;;;;7.42;nan;94696.91;5058994;28;20202;-69
2021/12/20 08:21:59;;;;;;;3.10;2.90;;;;;;;7.09;nan;94703.72;5059314;28;20664;-71
2021/12/20 08:24:26;;;;;;;4.25;3.85;;;;;;;6.57;nan;94706.69;5059429;28;20218;-72
2021/12/20 08:26:53;;;;;;;4.07;3.33;;;;;;;6.27;nan;94704.88;5059608;28;20218;-71
2021/12/20 08:29:23;;;;;;;3.90;3.50;;;;;;;6.07;nan;94695.25;5059554;28;20199;-69
2021/12/20 08:31:50;;;;;;;4.35;3.75;;;;;;;6.00;nan;94706.31;5058259;28;20238;-70
2021/12/20 08:34:17;;;;;;;7.20;3.90;;;;;;;5.85;nan;94702.41;5059221;28;20198;-71
2021/12/20 08:36:45;;;;;;;5.55;3.55;;;;;;;5.64;nan;94698.66;5059488;28;20293;-70
2021/12/20 08:39:17;;;;;;;5.35;2.97;;;;;;;5.52;nan;94703.09;5058841;28;20202;-73
2021/12/20 08:41:44;;;;;;;3.60;3.40;;;;;;;5.26;nan;94699.38;5059228;28;20252;-71
2021/12/20 08:44:11;;;;;;;3.33;3.07;;;;;;;5.38;nan;94710.94;5058973;28;20255;-71
2021/12/20 08:46:38;;;;;;;3.70;3.40;;;;;;;5.66;nan;94696.94;5059442;28;20250;-69
2021/12/20 08:49:05;;;;;;;3.73;3.43;;;;;;;5.42;nan;94707.50;5059380;28;20199;-72
2021/12/20 08:51:32;;;;;;;6.78;4.38;;;;;;;5.35;nan;94709.31;5062494;28;20206;-71
2021/12/20 08:54:00;;;;;;;3.67;3.20;;;;;;;5.29;nan;94709.41;5062859;28;20818;-69
2021/12/20 08:56:27;;;;;;;6.33;3.37;;;;;;;5.24;nan;94693.53;5062782;28;20202;-70
2021/12/20 08:58:53;;;;;;;4.60;4.20;;;;;;;5.35;nan;94711.81;5062702;28;20202;-68
2021/12/20 09:01:21;;;;;;;4.73;3.30;;;;;;;5.26;nan;94706.94;5059244;28;20283;-74
2021/12/20 09:03:47;;;;;;;9.75;5.72;;;;;;;5.34;nan;94714.38;5061854;28;20509;-74
2021/12/20 09:06:14;;;;;;;7.77;4.80;;;;;;;5.45;nan;94703.22;5061557;28;20226;-69
2021/12/20 09:08:42;;;;;;;4.80;4.35;;;;;;;5.31;nan;94714.41;5062182;28;20209;-72
2021/12/20 09:11:10;;;;;;;3.05;2.78;;;;;;;5.10;nan;94710.63;5062888;28;20202;-71
2021/12/20 09:13:37;;;;;;;2.58;2.47;;;;;;;4.92;nan;94710.94;5062323;28;20260;-73
2021/12/20 09:16:05;;;;;;;9.63;4.83;;;;;;;4.92;nan;94698.38;5061294;28;20229;-73
2021/12/20 09:18:31;;;;;;;5.30;2.27;;;;;;;5.01;nan;94703.22;5060745;28;20272;-74
2021/12/20 09:20:59;;;;;;;2.63;2.28;;;;;;;5.11;nan;94697.16;5060263;28;20678;-71
2021/12/20 09:23:29;;;;;;;2.72;2.53;;;;;;;5.06;nan;94696.41;5060136;28;20231;-71
2021/12/20 09:25:56;;;;;;;2.60;2.40;;;;;;;5.04;nan;94690.56;5059798;28;20840;-71
2021/12/20 09:28:24;;;;;;;2.70;2.50;;;;;;;5.18;nan;94693.69;5059410;28;20652;-71
2021/12/20 09:30:50;;;;;;;3.67;3.13;;;;;;;5.25;nan;94697.72;5060413;28;20248;-73
2021/12/20 09:33:17;;;;;;;2.90;2.60;;;;;;;5.30;nan;94698.47;5062080;28;20206;-71
2021/12/20 09:35:44;;;;;;;2.92;2.35;;;;;;;5.30;nan;94693.44;5062484;28;20735;-70
2021/12/20 09:38:16;;;;;;;2.72;2.40;;;;;;;5.23;nan;94699.44;5062193;28;20721;-70
2021/12/20 09:41:02;;;;;;;2.30;2.10;;;;;;;5.15;nan;94708.03;5061392;28;20195;-69
2021/12/20 09:43:30;;;;;;;1.85;1.75;;;;;;;5.10;nan;94700.53;5061391;28;20736;-75
2021/12/20 09:45:58;;;;;;;2.30;2.20;;;;;;;5.09;nan;94693.84;5062405;28;20229;-73
2021/12/20 09:48:26;;;;;;;2.33;1.80;;;;;;;4.96;nan;94695.75;5061854;28;20291;-67
2021/12/20 09:50:52;;;;;;;2.37;2.27;;;;;;;5.04;nan;94705.69;5061078;28;20202;-71
2021/12/20 09:53:19;;;;;;;2.08;1.95;;;;;;;5.01;nan;94690.63;5061400;28;20897;-71
2021/12/20 09:55:47;;;;;;;2.10;1.90;;;;;;;5.05;nan;94695.59;5061987;28;20203;-70
2021/12/20 09:58:15;;;;;;;1.85;1.75;;;;;;;4.92;nan;94678.22;5061600;28;20202;-71
2021/12/20 10:00:43;;;;;;;1.48;1.48;;;;;;;5.09;nan;94683.78;5061072;28;20292;-70
2021/12/20 10:03:13;;;;;;;1.43;1.33;;;;;;;5.20;nan;94681.88;5061145;28;20271;-71
2021/12/20 10:05:40;;;;;;;2.30;2.10;;;;;;;5.19;nan;94674.38;5061111;28;20293;-69
2021/12/20 10:08:14;;;;;;;2.00;1.90;;;;;;;5.19;nan;94682.75;5061591;28;20636;-72
2021/12/20 10:10:42;;;;;;;1.75;1.63;;;;;;;5.06;nan;94688.84;5061594;28;20298;-73
2021/12/20 10:13:21;;;;;;;2.20;2.07;;;;;;;5.13;nan;94678.66;5060941;28;20221;-69
2021/12/20 10:15:49;;;;;;;2.05;1.95;;;;;;;5.21;nan;94693.59;5061385;28;20287;-71
2021/12/20 10:18:16;;;;;;;2.65;2.45;;;;;;;5.32;nan;94678.28;5060936;28;20202;-70
2021/12/20 10:20:49;;;;;;;2.13;2.03;;;;;;;5.45;nan;94684.72;5061077;28;20622;-70
2021/12/20 10:23:19;;;;;;;2.13;1.92;;;;;;;5.36;nan;94693.31;5060606;28;20341;-73
2021/12/20 10:25:48;;;;;;;3.40;3.10;;;;;;;5.24;nan;94688.50;5061248;28;20206;-72
2021/12/20 10:28:17;;;;;;;2.57;2.37;;;;;;;5.28;nan;94694.31;5060771;28;20251;-71
2021/12/20 10:30:46;;;;;;;4.20;3.80;;;;;;;5.33;nan;94677.44;5060059;28;20947;-71
2021/12/20 10:33:16;;;;;;;2.45;2.35;;;;;;;5.28;nan;94680.03;5060452;28;20285;-70
2021/12/20 10:35:47;;;;;;;4.32;2.15;;;;;;;5.08;nan;94692.19;5060911;28;20202;-73
2021/12/20 10:38:32;;;;;;;2.10;2.00;;;;;;;4.97;nan;94684.81;5061184;28;20674;-71
2021/12/20 10:41:03;;;;;;;2.00;1.90;;;;;;;4.87;nan;94690.06;5060355;28;20209;-73
2021/12/20 10:43:36;;;;;;;2.40;2.20;;;;;;;4.83;nan;94690.97;5060022;28;20222;-71
2021/12/20 10:46:11;;;;;;;2.47;2.27;;;;;;;4.97;nan;94686.50;5060240;28;20202;-69
2021/12/20 10:48:39;;;;;;;4.03;2.53;;;;;;;4.98;nan;94699.06;5060106;28;20198;-70
2021/12/20 10:51:16;;;;;;;2.88;2.67;;;;;;;5.15;nan;94693.75;5061172;28;20620;-69
2021/12/20 10:53:46;;;;;;;2.72;2.53;;;;;;;5.10;nan;94690.47;5059955;28;20267;-69
2021/12/20 10:56:13;;;;;;;2.37;2.27;;;;;;;5.31;nan;94695.09;5060233;28;20198;-68
2021/12/20 10:58:41;;;;;;;2.40;2.30;;;;;;;5.35;nan;94690.84;5060356;28;20206;-70
2021/12/20 11:01:19;;;;;;;3.00;2.80;;;;;;;5.43;nan;94684.78;5060197;28;20352;-69
2021/12/20 11:03:59;;;;;;;2.80;2.60;;;;;;;5.65;nan;94684.34;5060259;28;20198;-70
2021/12/20 11:06:39;;;;;;;2.40;2.30;;;;;;;5.77;nan;94679.03;5060721;28;20233;-72
2021/12/20 11:09:17;;;;;;;4.85;4.05;;;;;;;5.70;nan;94692.63;5060240;28;20210;-72
2021/12/20 11:11:49;;;;;;;5.22;2.15;;;;;;;5.62;nan;94684.41;5060520;28;20198;-72
2021/12/20 11:14:17;;;;;;;2.20;2.10;;;;;;;5.49;nan;94688.84;5059327;28;20210;-72
2021/12/20 11:16:46;;;;;;;2.70;2.27;;;;;;;5.31;nan;94687.53;5060154;28;20206;-72
2021/12/20 11:19:33;;;;;;;2.10;2.00;;;;;;;5.16;nan;94677.78;5060066;28;20673;-71
2021/12/20 11:22:07;;;;;;;2.67;2.10;;;;;;;5.09;nan;94674.53;5060268;28;20202;-72
2021/12/20 11:24:38;;;;;;;4.10;1.80;;;;;;;5.15;nan;94688.69;5059891;28;20672;-72
2021/12/20 11:27:07;;;;;;;1.80;1.70;;;;;;;4.93;nan;94669.81;5059670;28;20283;-71
2021/12/20 11:29:34;;;;;;;1.85;1.75;;;;;;;4.94;nan;94661.41;5059963;28;20668;-70
2021/12/20 11:32:01;;;;;;;1.85;1.75;;;;;;;4.88;nan;94662.34;5060117;28;20202;-71
2021/12/20 11:34:28;;;;;;;1.97;1.87;;;;;;;4.80;nan;94656.59;5059262;28;20677;-70
2021/12/20 11:36:57;;;;;;;1.70;1.60;;;;;;;4.67;nan;94656.00;5060026;28;20283;-72
2021/12/20 11:39:25;;;;;;;2.38;2.22;;;;;;;4.66;nan;94663.56;5059195;28;20274;-74
2021/12/20 11:41:52;;;;;;;2.00;1.90;;;;;;;4.58;nan;94670.41;5059226;28;20234;-70
2021/12/20 11:44:24;;;;;;;1.60;1.50;;;;;;;4.64;nan;94665.28;5059260;28;20206;-71
2021/12/20 11:47:00;;;;;;;1.77;1.67;;;;;;;4.72;nan;94669.31;5059919;28;20226;-70
2021/12/20 11:49:29;;;;;;;1.90;1.80;;;;;;;4.64;nan;94676.19;5059773;28;20290;-72
2021/12/20 11:52:03;;;;;;;1.67;1.57;;;;;;;4.53;nan;94683.06;5059285;28;20252;-74
2021/12/20 11:54:50;;;;;;;1.70;1.63;;;;;;;4.42;nan;94689.97;5059265;28;20277;-70
2021/12/20 11:57:38;;;;;;;1.80;1.70;;;;;;;4.27;nan;94688.50;5059426;28;20206;-70
2021/12/20 12:00:19;;;;;;;3.67;1.60;;;;;;;4.26;nan;94696.06;5059152;28;20191;-70
2021/12/20 12:02:47;;;;;;;2.27;2.10;;;;;;;4.18;nan;94690.34;5059895;28;20735;-73
2021/12/20 12:05:17;;;;;;;1.70;1.60;;;;;;;4.22;nan;94697.81;5059598;28;20672;-72
2021/12/20 12:07:47;;;;;;;2.43;2.23;;;;;;;4.15;nan;94691.22;5059543;28;20234;-71
2021/12/20 12:10:15;;;;;;;1.27;1.27;;;;;;;4.07;nan;94677.91;5059392;28;20195;-70
2021/12/20 12:12:45;;;;;;;1.53;1.43;;;;;;;4.18;nan;94687.84;5058936;28;20266;-72